createdAt,value
2024-04-24T00:02:22.954Z,100834.09
2024-04-24T00:04:55.121Z,100839.53
2024-04-24T00:07:27.658Z,100843.25
2024-04-24T00:10:01.055Z,100849.06
2024-04-24T00:12:33.912Z,100844.44
2024-04-24T00:15:06.546Z,100849.44
2024-04-24T00:17:39.789Z,100847.31
2024-04-24T00:20:12.157Z,100845.84
2024-04-24T00:22:44.700Z,100845.22
2024-04-24T00:25:17.260Z,100852.69
2024-04-24T00:28:00.792Z,100850.34
2024-04-24T00:30:33.146Z,100865.16
2024-04-24T00:33:06.044Z,100866.13
2024-04-24T00:35:39.100Z,100859.19
2024-04-24T00:38:11.050Z,100864.19
2024-04-24T00:40:43.600Z,100853.28
2024-04-24T00:43:15.816Z,100858.06
2024-04-24T00:45:48.883Z,100859.22
2024-04-24T00:48:21.667Z,100861.03
2024-04-24T00:50:54.004Z,100858.03
2024-04-24T00:53:26.335Z,100849.28
2024-04-24T00:55:59.590Z,100855.50
2024-04-24T00:58:31.796Z,100852.50
2024-04-24T01:01:04.350Z,100850.16
2024-04-24T01:03:36.752Z,100844.59
2024-04-24T01:06:09.319Z,100852.16
2024-04-24T01:08:41.606Z,100843.38
2024-04-24T01:11:15.275Z,100843.84
2024-04-24T01:13:55.749Z,100836.66
2024-04-24T01:16:33.517Z,100828.66
2024-04-24T01:19:09.726Z,100834.69
2024-04-24T01:22:11.870Z,100826.13
2024-04-24T01:24:50.110Z,100825.72
2024-04-24T01:27:25.105Z,100822.59
2024-04-24T01:29:57.749Z,100831.56
2024-04-24T01:32:30.440Z,100831.97
2024-04-24T01:35:03.412Z,100825.16
2024-04-24T01:37:37.282Z,100833.03
2024-04-24T01:40:12.540Z,100827.44
2024-04-24T01:42:45.026Z,100821.41
2024-04-24T01:45:18.459Z,100824.78
2024-04-24T01:47:52.619Z,100826.84
2024-04-24T01:50:28.145Z,100834.09
2024-04-24T01:53:01.244Z,100823.50
2024-04-24T01:55:37.247Z,100823.50
2024-04-24T01:58:10.690Z,100818.88
2024-04-24T02:00:44.347Z,100817.81
2024-04-24T02:03:19.712Z,100810.56
2024-04-24T02:05:52.289Z,100822.59
2024-04-24T02:08:26.081Z,100821.25
2024-04-24T02:10:59.285Z,100816.25
2024-04-24T02:13:33.924Z,100810.66
2024-04-24T02:16:07.567Z,100807.03
2024-04-24T02:18:40.576Z,100813.00
2024-04-24T02:21:16.456Z,100807.47
2024-04-24T02:23:50.449Z,100803.22
2024-04-24T02:26:24.887Z,100798.69
2024-04-24T02:28:59.500Z,100793.72
2024-04-24T02:31:36.919Z,100784.72
2024-04-24T02:34:10.052Z,100791.97
2024-04-24T02:36:43.675Z,100792.19
2024-04-24T02:39:16.660Z,100789.00
2024-04-24T02:41:49.732Z,100793.22
2024-04-24T02:44:22.631Z,100784.50
2024-04-24T02:46:55.662Z,100788.66
2024-04-24T02:49:31.714Z,100786.09
2024-04-24T02:52:04.435Z,100795.59
2024-04-24T02:54:38.594Z,100775.13
2024-04-24T02:57:11.714Z,100777.84
2024-04-24T02:59:44.644Z,100775.97
2024-04-24T03:02:18.143Z,100778.78
2024-04-24T03:04:52.805Z,100769.19
2024-04-24T03:07:34.672Z,100770.75
2024-04-24T03:10:07.836Z,100764.47
2024-04-24T03:12:40.422Z,100758.44
2024-04-24T03:15:14.029Z,100758.53
2024-04-24T03:17:50.693Z,100747.06
2024-04-24T03:20:26.212Z,100745.66
2024-04-24T03:22:59.218Z,100738.16
2024-04-24T03:25:37.730Z,100732.22
2024-04-24T03:28:15.868Z,100730.94
2024-04-24T03:30:49.558Z,100719.13
2024-04-24T03:33:25.966Z,100726.38
2024-04-24T03:35:59.348Z,100709.38
2024-04-24T03:38:32.244Z,100712.72
2024-04-24T03:41:07.210Z,100701.31
2024-04-24T03:43:41.837Z,100694.91
2024-04-24T03:46:16.585Z,100694.31
2024-04-24T03:48:52.470Z,100689.78
2024-04-24T03:51:26.970Z,100686.06
2024-04-24T03:53:59.556Z,100676.34
2024-04-24T03:56:35.752Z,100665.41
2024-04-24T03:59:08.354Z,100670.50
2024-04-24T04:01:44.683Z,100659.34
2024-04-24T04:04:20.564Z,100652.22
2024-04-24T04:06:53.858Z,100659.09
2024-04-24T04:09:26.559Z,100656.09
2024-04-24T04:12:01.209Z,100655.38
2024-04-24T04:14:35.375Z,100644.38
2024-04-24T04:17:08.466Z,100643.97
2024-04-24T04:19:45.565Z,100643.00
2024-04-24T04:22:20.102Z,100640.94
2024-04-24T04:24:58.796Z,100636.16
2024-04-24T04:27:35.924Z,100638.97
2024-04-24T04:30:11.917Z,100633.16
2024-04-24T04:32:45.232Z,100617.59
2024-04-24T04:35:18.958Z,100616.09
2024-04-24T04:37:51.934Z,100620.56
2024-04-24T04:40:27.861Z,100613.25
2024-04-24T04:43:04.448Z,100607.28
2024-04-24T04:45:41.103Z,100600.25
2024-04-24T04:48:18.351Z,100594.47
2024-04-24T04:50:51.101Z,100587.16
2024-04-24T04:53:23.829Z,100581.56
2024-04-24T04:56:02.617Z,100580.72
2024-04-24T04:58:35.297Z,100582.00
2024-04-24T05:01:09.135Z,100589.13
2024-04-24T05:03:44.116Z,100581.38
2024-04-24T05:06:18.295Z,100587.81
2024-04-24T05:08:54.566Z,100570.31
2024-04-24T05:11:28.045Z,100573.88
2024-04-24T05:14:00.885Z,100568.34
2024-04-24T05:16:33.642Z,100568.38
2024-04-24T05:19:06.928Z,100565.94
2024-04-24T05:21:40.282Z,100569.91
2024-04-24T05:24:13.702Z,100561.34
2024-04-24T05:27:05.948Z,100551.34
2024-04-24T05:29:41.213Z,100541.53
2024-04-24T05:32:19.044Z,100537.88
2024-04-24T05:34:55.762Z,100532.50
2024-04-24T05:37:30.433Z,100519.81
2024-04-24T05:40:03.755Z,100510.47
2024-04-24T05:42:39.959Z,100505.66
2024-04-24T05:45:13.156Z,100513.66
2024-04-24T05:47:49.181Z,100511.41
2024-04-24T05:50:22.742Z,100514.50
2024-04-24T05:52:56.051Z,100514.22
2024-04-24T05:55:32.824Z,100503.03
2024-04-24T05:58:09.510Z,100490.69
2024-04-24T06:00:42.825Z,100480.06
2024-04-24T06:03:15.903Z,100487.69
2024-04-24T06:05:49.471Z,100469.16
2024-04-24T06:08:24.863Z,100465.91
2024-04-24T06:11:00.174Z,100470.31
2024-04-24T06:13:33.781Z,100471.81
2024-04-24T06:16:08.928Z,100452.44
2024-04-24T06:18:42.466Z,100457.69
2024-04-24T06:21:16.020Z,100436.16
2024-04-24T06:23:49.962Z,100432.88
2024-04-24T06:26:27.719Z,100425.78
2024-04-24T06:29:02.262Z,100411.88
2024-04-24T06:31:35.667Z,100411.63
2024-04-24T06:34:13.375Z,100402.34
2024-04-24T06:36:49.672Z,100399.06
2024-04-24T06:39:26.421Z,100405.69
2024-04-24T06:42:05.346Z,100401.91
2024-04-24T06:44:38.916Z,100403.06
2024-04-24T06:47:13.585Z,100415.84
2024-04-24T06:49:50.278Z,100427.69
2024-04-24T06:52:24.113Z,100435.38
2024-04-24T06:54:57.329Z,100440.63
2024-04-24T06:57:34.036Z,100437.31
2024-04-24T07:00:07.284Z,100429.38
2024-04-24T07:02:43.341Z,100429.31
2024-04-24T07:05:16.892Z,100424.94
2024-04-24T07:07:51.459Z,100429.19
2024-04-24T07:10:25.070Z,100430.97
2024-04-24T07:12:58.615Z,100426.19
2024-04-24T07:15:31.583Z,100427.72
2024-04-24T07:18:04.473Z,100414.41
2024-04-24T07:20:38.008Z,100413.31
2024-04-24T07:23:16.486Z,100400.13
2024-04-24T07:25:49.670Z,100399.03
2024-04-24T07:28:22.764Z,100411.06
2024-04-24T07:30:56.740Z,100429.66
2024-04-24T07:33:34.456Z,100433.03
2024-04-24T07:36:08.723Z,100440.19
2024-04-24T07:38:42.141Z,100437.06
2024-04-24T07:41:19.021Z,100438.09
2024-04-24T07:43:51.801Z,100443.13
2024-04-24T07:46:30.638Z,100460.50
2024-04-24T07:49:06.402Z,100464.31
2024-04-24T07:51:42.507Z,100472.19
2024-04-24T07:54:15.953Z,100474.34
2024-04-24T07:56:52.372Z,100475.09
2024-04-24T07:59:25.428Z,100469.06
2024-04-24T08:02:00.642Z,100464.09
2024-04-24T08:04:33.628Z,100455.84
2024-04-24T08:07:06.392Z,100450.38
2024-04-24T08:09:40.049Z,100444.25
2024-04-24T08:12:13.453Z,100430.47
2024-04-24T08:14:46.169Z,100428.50
2024-04-24T08:17:19.991Z,100432.06
2024-04-24T08:19:56.626Z,100430.03
2024-04-24T08:22:29.330Z,100421.31
2024-04-24T08:25:01.816Z,100428.13
2024-04-24T08:27:35.035Z,100448.34
2024-04-24T08:30:09.222Z,100446.03
2024-04-24T08:32:47.848Z,100458.06
2024-04-24T08:35:23.962Z,100457.47
2024-04-24T08:37:56.885Z,100454.16
2024-04-24T08:40:30.138Z,100441.72
2024-04-24T08:43:03.753Z,100448.72
2024-04-24T08:45:36.632Z,100439.44
2024-04-24T08:48:13.053Z,100445.19
2024-04-24T08:50:52.670Z,100438.28
2024-04-24T08:53:29.094Z,100436.59
2024-04-24T08:56:08.660Z,100436.59
2024-04-24T08:58:42.822Z,100437.09
2024-04-24T09:01:17.965Z,100439.56
2024-04-24T09:03:57.246Z,100443.56
2024-04-24T09:06:32.683Z,100450.69
2024-04-24T09:09:06.563Z,100453.50
2024-04-24T09:11:40.148Z,100440.91
2024-04-24T09:14:16.643Z,100441.72
2024-04-24T09:16:54.819Z,100430.00
2024-04-24T09:19:27.726Z,100434.31
2024-04-24T09:22:01.697Z,100429.91
2024-04-24T09:24:39.084Z,100425.59
2024-04-24T09:27:12.412Z,100427.84
2024-04-24T09:29:46.214Z,100422.38
2024-04-24T09:32:19.661Z,100423.94
2024-04-24T09:34:56.588Z,100419.72
2024-04-24T09:37:29.801Z,100436.97
2024-04-24T09:40:03.200Z,100435.63
2024-04-24T09:42:39.495Z,100451.13
2024-04-24T09:45:13.323Z,100464.28
2024-04-24T09:47:47.923Z,100477.34
2024-04-24T09:50:24.894Z,100484.97
2024-04-24T09:52:58.050Z,100497.22
2024-04-24T09:55:33.906Z,100500.28
2024-04-24T09:58:09.228Z,100496.91
2024-04-24T10:00:55.418Z,100502.63
2024-04-24T10:03:43.180Z,100511.06
2024-04-24T10:06:27.938Z,100515.94
2024-04-24T10:09:03.451Z,100514.28
2024-04-24T10:11:40.216Z,100525.03
2024-04-24T10:14:14.160Z,100541.91
2024-04-24T10:16:51.676Z,100543.44
2024-04-24T10:19:25.601Z,100533.28
2024-04-24T10:22:00.395Z,100538.75
2024-04-24T10:24:38.160Z,100531.78
2024-04-24T10:27:17.495Z,100540.44
2024-04-24T10:29:51.712Z,100549.03
2024-04-24T10:32:25.569Z,100557.81
2024-04-24T10:34:59.860Z,100561.03
2024-04-24T10:37:32.723Z,100570.53
2024-04-24T10:40:10.656Z,100571.84
2024-04-24T10:42:44.624Z,100571.03
2024-04-24T10:45:20.463Z,100565.81
2024-04-24T10:47:56.569Z,100571.16
2024-04-24T10:50:32.650Z,100567.03
2024-04-24T10:53:06.720Z,100573.88
2024-04-24T10:55:39.870Z,100584.66
2024-04-24T10:58:29.481Z,100593.97
2024-04-24T11:01:13.915Z,100600.38
2024-04-24T11:03:47.901Z,100611.66
2024-04-24T11:06:22.385Z,100622.00
2024-04-24T11:08:56.310Z,100630.41
2024-04-24T11:11:33.284Z,100625.19
2024-04-24T11:14:13.571Z,100629.00
2024-04-24T11:17:08.644Z,100632.31
2024-04-24T11:19:41.844Z,100627.94
2024-04-24T11:22:14.978Z,100639.31
2024-04-24T11:24:58.226Z,100646.31
2024-04-24T11:27:33.474Z,100647.97
2024-04-24T11:30:17.778Z,100645.38
2024-04-24T11:33:00.752Z,100639.22
2024-04-24T11:35:37.090Z,100644.56
2024-04-24T11:38:15.137Z,100637.44
2024-04-24T11:40:48.174Z,100621.66
2024-04-24T11:43:23.621Z,100629.25
2024-04-24T11:45:59.591Z,100641.81
2024-04-24T11:48:40.413Z,100653.22
2024-04-24T11:51:18.377Z,100664.13
2024-04-24T11:53:55.433Z,100661.13
2024-04-24T11:56:30.794Z,100669.09
2024-04-24T11:59:12.233Z,100674.44
2024-04-24T12:01:47.043Z,100679.16
2024-04-24T12:04:21.617Z,100677.25
2024-04-24T12:06:56.477Z,100677.00
2024-04-24T12:09:30.752Z,100672.84
2024-04-24T12:12:08.227Z,100676.66
2024-04-24T12:14:44.182Z,100676.66
2024-04-24T12:17:24.148Z,100683.03
2024-04-24T12:19:58.708Z,100681.63
2024-04-24T12:22:31.877Z,100678.91
2024-04-24T12:25:05.304Z,100678.31
2024-04-24T12:27:41.348Z,100677.84
2024-04-24T12:30:17.735Z,100677.25
2024-04-24T12:32:56.458Z,100665.75
2024-04-24T12:35:38.073Z,100668.69
2024-04-24T12:38:14.936Z,100679.25
2024-04-24T12:40:59.389Z,100684.72
2024-04-24T12:43:35.611Z,100692.28
2024-04-24T12:46:10.589Z,100700.94
2024-04-24T12:48:47.631Z,100711.25
2024-04-24T12:51:26.188Z,100709.59
2024-04-24T12:54:22.809Z,100709.00
2024-04-24T12:56:59.705Z,100707.66
2024-04-24T12:59:37.821Z,100730.38
2024-04-24T13:02:21.618Z,100734.16
2024-04-24T13:04:58.691Z,100743.84
2024-04-24T13:07:35.816Z,100748.50
2024-04-24T13:10:15.568Z,100744.69
2024-04-24T13:12:55.694Z,100756.06
2024-04-24T13:15:36.213Z,100764.00
2024-04-24T13:18:10.358Z,100773.09
2024-04-24T13:20:45.009Z,100779.13
2024-04-24T13:23:19.128Z,100786.56
2024-04-24T13:25:52.367Z,100787.16
2024-04-24T13:28:26.095Z,100801.03
2024-04-24T13:31:06.457Z,100796.88
2024-04-24T13:33:49.918Z,100796.50
2024-04-24T13:36:25.096Z,100808.69
2024-04-24T13:38:59.331Z,100814.13
2024-04-24T13:41:37.366Z,100820.63
2024-04-24T13:44:23.275Z,100821.03
2024-04-24T13:47:03.041Z,100816.38
2024-04-24T13:49:40.588Z,100819.56
2024-04-24T13:52:18.693Z,100818.97
2024-04-24T13:54:55.894Z,100819.06
2024-04-24T13:57:34.176Z,100827.59
2024-04-24T14:00:14.539Z,100834.72
2024-04-24T14:02:49.745Z,100838.94
2024-04-24T14:05:28.261Z,100836.47
2024-04-24T14:08:02.375Z,100838.34
2024-04-24T14:10:41.025Z,100843.63
2024-04-24T14:13:19.142Z,100848.03
2024-04-24T14:15:57.534Z,100845.75
2024-04-24T14:18:34.571Z,100849.38
2024-04-24T14:21:10.875Z,100848.53
2024-04-24T14:23:56.807Z,100845.81
2024-04-24T14:26:32.381Z,100851.09
2024-04-24T14:29:08.020Z,100848.00
2024-04-24T14:31:46.636Z,100844.84
2024-04-24T14:34:23.669Z,100846.69
2024-04-24T14:37:04.164Z,100837.72
2024-04-24T14:39:40.171Z,100826.22
2024-04-24T14:42:22.743Z,100821.00
2024-04-24T14:45:02.216Z,100823.09
2024-04-24T14:47:37.723Z,100822.66
2024-04-24T14:50:13.644Z,100812.66
2024-04-24T14:52:52.397Z,100814.59
2024-04-24T14:55:33.051Z,100806.41
2024-04-24T14:58:18.237Z,100815.03
2024-04-24T15:00:57.662Z,100812.91
2024-04-24T15:03:58.874Z,100806.00
2024-04-24T15:06:39.853Z,100800.22
2024-04-24T15:09:16.918Z,100793.28
2024-04-24T15:12:00.112Z,100786.78
2024-04-24T15:14:38.225Z,100788.44
2024-04-24T15:17:21.429Z,100789.09
2024-04-24T15:20:03.990Z,100782.03
2024-04-24T15:22:42.375Z,100777.66
2024-04-24T15:25:31.114Z,100765.56
2024-04-24T15:28:07.162Z,100767.66
2024-04-24T15:30:41.216Z,100764.94
2024-04-24T15:33:25.368Z,100763.13
2024-04-24T15:36:11.080Z,100766.91
2024-04-24T15:38:46.566Z,100768.41
2024-04-24T15:41:24.005Z,100769.47
2024-04-24T15:44:07.033Z,100761.91
2024-04-24T15:46:41.860Z,100764.88
2024-04-24T15:49:22.328Z,100766.91
2024-04-24T15:52:02.623Z,100768.13
2024-04-24T15:54:36.707Z,100769.97
2024-04-24T15:57:13.569Z,100774.56
2024-04-24T15:59:48.113Z,100779.13
2024-04-24T16:02:30.099Z,100774.28
2024-04-24T16:05:05.450Z,100777.91
2024-04-24T16:07:39.224Z,100781.22
2024-04-24T16:10:22.662Z,100773.31
2024-04-24T16:13:01.227Z,100771.56
2024-04-24T16:15:37.949Z,100764.91
2024-04-24T16:18:14.284Z,100762.03
2024-04-24T16:20:52.654Z,100763.31
2024-04-24T16:23:30.400Z,100767.31
2024-04-24T16:26:04.711Z,100755.16
2024-04-24T16:28:38.363Z,100760.38
2024-04-24T16:31:14.409Z,100763.16
2024-04-24T16:33:49.399Z,100771.69
2024-04-24T16:36:25.346Z,100760.19
2024-04-24T16:39:04.057Z,100759.59
2024-04-24T16:41:43.380Z,100762.56
2024-04-24T16:44:25.195Z,100763.78
2024-04-24T16:47:02.322Z,100753.78
2024-04-24T16:49:38.400Z,100755.44
2024-04-24T16:52:17.456Z,100755.91
2024-04-24T16:54:50.268Z,100755.53
2024-04-24T16:57:23.249Z,100763.28
2024-04-24T16:59:58.815Z,100762.28
2024-04-24T17:02:31.913Z,100768.09
2024-04-24T17:05:05.121Z,100757.41
2024-04-24T17:07:37.932Z,100751.16
2024-04-24T17:10:15.101Z,100758.09
2024-04-24T17:12:50.555Z,100751.00
2024-04-24T17:15:25.778Z,100744.84
2024-04-24T17:17:58.394Z,100750.19
2024-04-24T17:20:34.361Z,100745.38
2024-04-24T17:23:07.218Z,100738.91
2024-04-24T17:25:40.247Z,100730.13
2024-04-24T17:28:12.889Z,100727.59
2024-04-24T17:30:45.411Z,100725.31
2024-04-24T17:33:17.775Z,100721.78
2024-04-24T17:35:56.257Z,100710.06
2024-04-24T17:38:33.090Z,100705.13
2024-04-24T17:41:07.396Z,100700.72
2024-04-24T17:43:39.718Z,100706.53
2024-04-24T17:46:12.238Z,100701.19
2024-04-24T17:48:44.887Z,100698.47
2024-04-24T17:51:17.578Z,100694.06
2024-04-24T17:53:50.199Z,100691.34
2024-04-24T17:56:25.974Z,100694.97
2024-04-24T17:58:58.846Z,100697.69
2024-04-24T18:01:31.168Z,100705.00
2024-04-24T18:04:03.474Z,100706.69
2024-04-24T18:06:38.007Z,100710.44
2024-04-24T18:09:10.103Z,100701.81
2024-04-24T18:11:42.475Z,100700.41
2024-04-24T18:14:15.707Z,100702.91
2024-04-24T18:16:48.057Z,100692.03
2024-04-24T18:19:20.313Z,100684.34
2024-04-24T18:21:52.640Z,100682.44
2024-04-24T18:24:26.788Z,100684.34
2024-04-24T18:27:00.309Z,100685.38
2024-04-24T18:29:32.401Z,100683.31
2024-04-24T18:32:07.961Z,100674.19
2024-04-24T18:34:40.772Z,100674.78
2024-04-24T18:37:12.718Z,100667.25
2024-04-24T18:39:44.856Z,100669.78
2024-04-24T18:42:16.971Z,100664.97
2024-04-24T18:44:49.317Z,100664.19
2024-04-24T18:47:23.529Z,100662.69
2024-04-24T18:49:56.182Z,100656.84
2024-04-24T18:52:28.797Z,100656.47
2024-04-24T18:55:00.962Z,100659.81
2024-04-24T18:57:34.185Z,100668.59
2024-04-24T19:00:12.753Z,100666.94
2024-04-24T19:02:44.855Z,100672.59
2024-04-24T19:05:18.453Z,100667.00
2024-04-24T19:07:50.589Z,100674.47
2024-04-24T19:10:23.914Z,100670.69
2024-04-24T19:12:56.012Z,100682.44
2024-04-24T19:15:28.166Z,100689.16
2024-04-24T19:18:00.275Z,100693.72
2024-04-24T19:20:34.811Z,100696.06
2024-04-24T19:23:07.206Z,100698.78
2024-04-24T19:25:39.632Z,100696.69
2024-04-24T19:28:12.397Z,100697.31
2024-04-24T19:30:44.498Z,100704.19
2024-04-24T19:33:16.633Z,100711.75
2024-04-24T19:35:53.857Z,100702.13
2024-04-24T19:38:25.974Z,100710.47
2024-04-24T19:41:00.099Z,100709.47
2024-04-24T19:43:35.785Z,100708.41
2024-04-24T19:46:11.185Z,100698.78
2024-04-24T19:48:43.220Z,100702.16
2024-04-24T19:51:19.735Z,100702.16
2024-04-24T19:53:51.424Z,100705.47
2024-04-24T19:56:23.582Z,100712.41
2024-04-24T19:58:55.498Z,100713.44
2024-04-24T20:01:30.986Z,100711.81
2024-04-24T20:04:03.058Z,100709.69
2024-04-24T20:06:37.363Z,100703.00
2024-04-24T20:09:11.749Z,100703.00
2024-04-24T20:11:43.900Z,100701.78
2024-04-24T20:14:16.130Z,100707.63
2024-04-24T20:16:49.262Z,100709.72
2024-04-24T20:19:23.166Z,100705.97
2024-04-24T20:21:57.872Z,100715.16
2024-04-24T20:24:32.792Z,100716.63
2024-04-24T20:27:04.807Z,100719.34
2024-04-24T20:29:37.717Z,100728.53
2024-04-24T20:32:10.088Z,100735.25
2024-04-24T20:34:42.569Z,100734.41
2024-04-24T20:37:14.763Z,100738.16
2024-04-24T20:39:50.048Z,100745.69
2024-04-24T20:42:22.223Z,100752.59
2024-04-24T20:44:59.145Z,100755.53
2024-04-24T20:47:31.689Z,100752.81
2024-04-24T20:50:06.344Z,100752.56
2024-04-24T20:52:39.650Z,100741.72
2024-04-24T20:55:14.736Z,100744.44
2024-04-24T20:57:46.940Z,100742.81
2024-04-24T21:00:19.174Z,100750.91
2024-04-24T21:02:52.040Z,100740.28
2024-04-24T21:05:30.377Z,100746.56
2024-04-24T21:08:03.230Z,100753.84
2024-04-24T21:10:35.705Z,100746.53
2024-04-24T21:13:07.712Z,100755.09
2024-04-24T21:15:39.772Z,100755.75
2024-04-24T21:18:12.001Z,100746.53
2024-04-24T21:20:44.127Z,100752.38
2024-04-24T21:23:18.425Z,100752.81
2024-04-24T21:25:51.776Z,100753.22
2024-04-24T21:28:31.175Z,100756.16
2024-04-24T21:31:07.274Z,100755.53
2024-04-24T21:33:39.358Z,100748.22
2024-04-24T21:36:11.474Z,100747.59
2024-04-24T21:38:43.590Z,100752.00
2024-04-24T21:41:22.886Z,100757.00
2024-04-24T21:43:55.072Z,100758.69
2024-04-24T21:46:27.012Z,100764.94
2024-04-24T21:48:59.075Z,100765.53
2024-04-24T21:51:31.115Z,100766.41
2024-04-24T21:54:05.020Z,100775.78
2024-04-24T21:56:38.052Z,100773.50
2024-04-24T21:59:11.464Z,100775.78
2024-04-24T22:01:43.434Z,100764.94
2024-04-24T22:04:15.476Z,100772.47
2024-04-24T22:06:47.828Z,100770.78
2024-04-24T22:09:20.417Z,100778.31
2024-04-24T22:11:52.643Z,100771.19
2024-04-24T22:14:28.487Z,100777.28
2024-04-24T22:17:03.282Z,100771.44
2024-04-24T22:19:39.284Z,100771.84
2024-04-24T22:22:11.642Z,100771.63
2024-04-24T22:24:43.616Z,100773.69
2024-04-24T22:27:15.951Z,100776.66
2024-04-24T22:29:48.098Z,100776.41
2024-04-24T22:32:20.104Z,100776.63
2024-04-24T22:34:52.154Z,100777.28
2024-04-24T22:37:25.035Z,100781.19
2024-04-24T22:39:57.328Z,100787.47
2024-04-24T22:42:29.290Z,100784.38
2024-04-24T22:45:01.132Z,100782.44
2024-04-24T22:47:33.442Z,100789.13
2024-04-24T22:50:05.570Z,100787.06
2024-04-24T22:52:37.936Z,100805.38
2024-04-24T22:55:10.232Z,100798.28
2024-04-24T22:57:42.876Z,100793.31
2024-04-24T23:00:19.477Z,100797.44
2024-04-24T23:02:51.977Z,100794.75
2024-04-24T23:05:24.480Z,100800.81
2024-04-24T23:07:56.508Z,100814.38
2024-04-24T23:10:29.090Z,100815.81
2024-04-24T23:13:01.149Z,100822.09
2024-04-24T23:15:33.383Z,100829.19
2024-04-24T23:18:07.300Z,100822.31
2024-04-24T23:20:39.525Z,100827.09
2024-04-24T23:23:14.640Z,100837.97
2024-04-24T23:25:46.627Z,100835.88
2024-04-24T23:28:19.345Z,100840.91
2024-04-24T23:30:52.230Z,100844.44
2024-04-24T23:33:24.418Z,100842.97
2024-04-24T23:35:56.376Z,100837.97
2024-04-24T23:38:28.359Z,100841.69
2024-04-24T23:41:01.274Z,100844.41
2024-04-24T23:43:33.743Z,100839.59
2024-04-24T23:46:05.982Z,100841.69
2024-04-24T23:48:39.390Z,100844.59
2024-04-24T23:51:14.757Z,100849.19
2024-04-24T23:53:50.620Z,100854.19
2024-04-24T23:56:24.417Z,100849.78
2024-04-24T23:58:59.520Z,100843.72
